Аэропорт: Гомель. Гомель

ICAO: UMGG

METAR:
2019/03/24 18:00
UMGG 241800Z 31005MPS CAVOK 06/M03 Q1013 R28/CLRD// NOSIG
METAR:
2019/03/24 18:36
TAF UMGG 241700Z 2418/2518 28006MPS 9999 SCT020 
      TEMPO 2421/2506 VRB02MPS 2000 BR BKN005 
      BECMG 2506/2508 20006MPS 
      TEMPO 2514/2518 2000 SHRA BKN005 BKN020CB